createdAt,value
2018-12-30T00:02:19.088Z,100754.30
2018-12-30T00:04:47.286Z,100761.31
2018-12-30T00:07:15.391Z,100743.87
2018-12-30T00:09:43.714Z,100744.42
2018-12-30T00:12:11.771Z,100743.65
2018-12-30T00:14:39.837Z,100742.43
2018-12-30T00:17:07.602Z,100743.77
2018-12-30T00:19:42.582Z,100735.92
2018-12-30T00:22:05.196Z,100744.89
2018-12-30T00:24:32.977Z,100732.86
2018-12-30T00:27:00.716Z,100732.74
2018-12-30T00:29:28.538Z,100735.52
2018-12-30T00:31:56.377Z,100728.90
2018-12-30T00:34:24.207Z,100737.35
2018-12-30T00:36:52.044Z,100741.06
2018-12-30T00:39:19.806Z,100737.78
2018-12-30T00:41:47.549Z,100743.40
2018-12-30T00:44:15.325Z,100738.66
2018-12-30T00:46:43.143Z,100735.10
2018-12-30T00:49:10.919Z,100732.23
2018-12-30T00:51:38.715Z,100741.92
2018-12-30T00:54:06.506Z,100734.91
2018-12-30T00:56:34.683Z,100734.76
2018-12-30T00:59:02.537Z,100737.31
2018-12-30T01:01:30.326Z,100738.09
2018-12-30T01:03:58.087Z,100742.47
2018-12-30T01:06:25.993Z,100743.41
2018-12-30T01:08:53.827Z,100739.52
2018-12-30T01:11:21.775Z,100746.84
2018-12-30T01:13:49.555Z,100746.32
2018-12-30T01:16:17.477Z,100751.91
2018-12-30T01:18:45.294Z,100756.23
2018-12-30T01:21:13.059Z,100756.77
2018-12-30T01:23:40.914Z,100756.58
2018-12-30T01:26:09.807Z,100757.73
2018-12-30T01:28:37.957Z,100753.22
2018-12-30T01:31:05.749Z,100748.66
2018-12-30T01:33:33.516Z,100750.28
2018-12-30T01:36:01.341Z,100751.12
2018-12-30T01:38:29.100Z,100749.01
2018-12-30T01:40:59.659Z,100754.11
2018-12-30T01:43:27.441Z,100754.77
2018-12-30T01:45:55.241Z,100750.41
2018-12-30T01:48:23.036Z,100752.28
2018-12-30T01:50:51.203Z,100762.34
2018-12-30T01:53:19.006Z,100750.72
2018-12-30T01:55:46.881Z,100744.34
2018-12-30T01:58:15.281Z,100745.30
2018-12-30T02:00:43.047Z,100742.97
2018-12-30T02:03:10.828Z,100736.61
2018-12-30T02:05:40.632Z,100755.23
2018-12-30T02:08:08.405Z,100751.41
2018-12-30T02:10:36.213Z,100745.55
2018-12-30T02:13:03.986Z,100757.70
2018-12-30T02:15:31.755Z,100755.61
2018-12-30T02:18:00.705Z,100752.06
2018-12-30T02:20:28.445Z,100756.55
2018-12-30T02:22:56.600Z,100751.95
2018-12-30T02:25:24.337Z,100761.95
2018-12-30T02:27:52.254Z,100757.31
2018-12-30T02:30:20.014Z,100754.05
2018-12-30T02:32:47.804Z,100756.36
2018-12-30T02:35:15.544Z,100752.58
2018-12-30T02:37:46.535Z,100753.73
2018-12-30T02:40:14.281Z,100752.31
2018-12-30T02:42:42.065Z,100755.94
2018-12-30T02:45:09.846Z,100757.94
2018-12-30T02:47:37.634Z,100756.20
2018-12-30T02:50:05.466Z,100748.23
2018-12-30T02:52:33.235Z,100748.27
2018-12-30T02:55:01.023Z,100744.88
2018-12-30T02:57:29.094Z,100745.44
2018-12-30T02:59:56.955Z,100743.55
2018-12-30T03:02:24.698Z,100747.22
2018-12-30T03:04:52.594Z,100759.27
2018-12-30T03:07:20.458Z,100746.81
2018-12-30T03:09:48.736Z,100750.84
2018-12-30T03:12:16.510Z,100745.53
2018-12-30T03:14:44.300Z,100739.45
2018-12-30T03:17:12.095Z,100740.22
2018-12-30T03:19:39.837Z,100746.04
2018-12-30T03:22:07.995Z,100742.95
2018-12-30T03:24:35.839Z,100746.00
2018-12-30T03:27:03.613Z,100744.27
2018-12-30T03:29:31.393Z,100754.38
2018-12-30T03:31:59.211Z,100753.89
2018-12-30T03:34:27.001Z,100754.96
2018-12-30T03:36:56.127Z,100756.48
2018-12-30T03:39:23.937Z,100755.33
2018-12-30T03:41:51.735Z,100758.09
2018-12-30T03:44:19.893Z,100754.98
2018-12-30T03:46:47.899Z,100766.02
2018-12-30T03:49:15.671Z,100764.76
2018-12-30T03:51:43.445Z,100757.54
2018-12-30T03:54:11.281Z,100764.57
2018-12-30T03:56:39.044Z,100768.87
2018-12-30T03:59:07.029Z,100779.67
2018-12-30T04:01:34.793Z,100779.66
2018-12-30T04:04:02.763Z,100772.81
2018-12-30T04:06:30.746Z,100778.34
2018-12-30T04:08:58.621Z,100786.47
2018-12-30T04:11:26.476Z,100788.84
2018-12-30T04:13:54.251Z,100796.05
2018-12-30T04:16:21.988Z,100806.70
2018-12-30T04:18:49.975Z,100808.96
2018-12-30T04:21:17.757Z,100820.22
2018-12-30T04:23:45.862Z,100825.26
2018-12-30T04:26:13.647Z,100824.45
2018-12-30T04:28:41.453Z,100837.75
2018-12-30T04:31:09.287Z,100832.72
2018-12-30T04:33:37.286Z,100845.60
2018-12-30T04:36:05.162Z,100855.94
2018-12-30T04:38:32.928Z,100865.14
2018-12-30T04:41:02.517Z,100863.58
2018-12-30T04:43:30.296Z,100870.87
2018-12-30T04:45:58.095Z,100874.31
2018-12-30T04:48:25.867Z,100871.11
2018-12-30T04:50:53.775Z,100888.77
2018-12-30T04:53:21.614Z,100889.13
2018-12-30T04:55:51.249Z,100892.78
2018-12-30T04:58:19.059Z,100895.28
2018-12-30T05:00:46.838Z,100899.59
2018-12-30T05:03:14.637Z,100898.53
2018-12-30T05:05:42.733Z,100914.23
2018-12-30T05:08:10.512Z,100912.09
2018-12-30T05:10:38.269Z,100924.91
2018-12-30T05:13:06.045Z,100916.50
2018-12-30T05:15:33.762Z,100934.38
2018-12-30T05:18:01.580Z,100942.98
2018-12-30T05:20:29.514Z,100952.86
2018-12-30T05:22:57.307Z,100955.36
2018-12-30T05:25:25.064Z,100965.39
2018-12-30T05:27:53.784Z,100967.53
2018-12-30T05:30:21.682Z,100974.12
2018-12-30T05:32:49.720Z,100980.99
2018-12-30T05:35:17.496Z,100985.87
2018-12-30T05:37:45.301Z,100998.59
2018-12-30T05:40:13.064Z,101005.00
2018-12-30T05:42:41.203Z,100997.86
2018-12-30T05:45:09.295Z,101005.59
2018-12-30T05:47:37.087Z,101015.47
2018-12-30T05:50:06.666Z,101024.97
2018-12-30T05:52:41.619Z,101015.16
2018-12-30T05:55:05.498Z,101030.23
2018-12-30T05:57:33.547Z,101034.57
2018-12-30T06:00:01.366Z,101041.98
2018-12-30T06:02:29.162Z,101051.22
2018-12-30T06:04:56.946Z,101059.75
2018-12-30T06:07:24.764Z,101062.45
2018-12-30T06:09:52.495Z,101065.14
2018-12-30T06:12:20.314Z,101072.14
2018-12-30T06:14:50.386Z,101079.33
2018-12-30T06:17:18.184Z,101083.81
2018-12-30T06:19:45.982Z,101096.17
2018-12-30T06:22:13.768Z,101098.49
2018-12-30T06:24:41.630Z,101103.36
2018-12-30T06:27:09.448Z,101108.63
2018-12-30T06:29:37.446Z,101119.03
2018-12-30T06:32:05.264Z,101122.84
2018-12-30T06:34:33.088Z,101137.30
2018-12-30T06:37:00.835Z,101145.37
2018-12-30T06:39:28.613Z,101150.52
2018-12-30T06:41:56.420Z,101163.55
2018-12-30T06:44:26.011Z,101153.99
2018-12-30T06:46:53.805Z,101174.23
2018-12-30T06:49:21.584Z,101173.07
2018-12-30T06:51:49.338Z,101183.79
2018-12-30T06:54:17.204Z,101191.83
2018-12-30T06:56:44.988Z,101200.19
2018-12-30T06:59:12.976Z,101202.90
2018-12-30T07:01:41.082Z,101206.70
2018-12-30T07:04:08.849Z,101202.20
2018-12-30T07:06:38.394Z,101212.39
2018-12-30T07:09:06.650Z,101221.30
2018-12-30T07:11:34.462Z,101224.97
2018-12-30T07:14:02.273Z,101229.80
2018-12-30T07:16:30.041Z,101217.89
2018-12-30T07:18:58.945Z,101223.60
2018-12-30T07:21:27.082Z,101238.72
2018-12-30T07:23:54.915Z,101243.76
2018-12-30T07:26:24.473Z,101250.61
2018-12-30T07:28:52.313Z,101252.23
2018-12-30T07:31:20.107Z,101255.44
2018-12-30T07:33:47.891Z,101247.41
2018-12-30T07:36:15.682Z,101264.27
2018-12-30T07:38:43.493Z,101257.80
2018-12-30T07:41:11.239Z,101260.95
2018-12-30T07:43:38.983Z,101267.83
2018-12-30T07:46:06.875Z,101269.84
2018-12-30T07:48:34.638Z,101278.25
2018-12-30T07:51:02.631Z,101273.68
2018-12-30T07:53:30.682Z,101292.17
2018-12-30T07:55:58.468Z,101288.77
2018-12-30T07:58:26.253Z,101304.02
2018-12-30T08:00:54.144Z,101306.38
2018-12-30T08:03:21.912Z,101307.38
2018-12-30T08:05:49.871Z,101324.50
2018-12-30T08:08:18.022Z,101324.83
2018-12-30T08:10:46.791Z,101316.59
2018-12-30T08:13:14.767Z,101315.75
2018-12-30T08:15:42.548Z,101324.44
2018-12-30T08:18:10.346Z,101323.89
2018-12-30T08:20:38.172Z,101325.69
2018-12-30T08:23:05.975Z,101328.37
2018-12-30T08:25:33.843Z,101338.08
2018-12-30T08:28:01.613Z,101343.13
2018-12-30T08:30:29.385Z,101347.78
2018-12-30T08:32:57.183Z,101353.29
2018-12-30T08:35:25.143Z,101349.17
2018-12-30T08:37:52.909Z,101361.55
2018-12-30T08:40:20.671Z,101359.93
2018-12-30T08:42:48.453Z,101369.15
2018-12-30T08:45:16.260Z,101372.59
2018-12-30T08:47:44.039Z,101385.80
2018-12-30T08:50:11.822Z,101382.59
2018-12-30T08:52:39.641Z,101391.98
2018-12-30T08:55:07.377Z,101393.28
2018-12-30T08:57:35.186Z,101396.63
2018-12-30T09:00:03.629Z,101402.03
2018-12-30T09:02:31.518Z,101405.66
2018-12-30T09:04:59.278Z,101405.34
2018-12-30T09:07:27.118Z,101406.02
2018-12-30T09:09:54.981Z,101404.08
2018-12-30T09:12:22.944Z,101420.50
2018-12-30T09:14:50.708Z,101420.99
2018-12-30T09:17:18.564Z,101429.05
2018-12-30T09:19:46.338Z,101425.87
2018-12-30T09:22:14.096Z,101440.59
2018-12-30T09:24:41.842Z,101436.39
2018-12-30T09:27:09.600Z,101438.03
2018-12-30T09:29:37.400Z,101437.81
2018-12-30T09:32:05.237Z,101445.18
2018-12-30T09:34:33.823Z,101437.53
2018-12-30T09:37:01.881Z,101441.37
2018-12-30T09:39:29.775Z,101446.26
2018-12-30T09:41:57.557Z,101443.33
2018-12-30T09:44:25.335Z,101448.06
2018-12-30T09:46:53.100Z,101440.11
2018-12-30T09:49:21.232Z,101444.37
2018-12-30T09:51:48.969Z,101446.27
2018-12-30T09:54:19.032Z,101458.90
2018-12-30T09:56:48.099Z,101449.70
2018-12-30T09:59:15.901Z,101453.02
2018-12-30T10:01:43.679Z,101455.45
2018-12-30T10:04:11.434Z,101458.83
2018-12-30T10:06:39.229Z,101463.56
2018-12-30T10:09:07.707Z,101459.58
2018-12-30T10:11:35.514Z,101455.00
2018-12-30T10:14:03.883Z,101458.37
2018-12-30T10:16:31.681Z,101458.98
2018-12-30T10:18:59.519Z,101456.80
2018-12-30T10:21:27.365Z,101459.79
2018-12-30T10:23:56.018Z,101461.36
2018-12-30T10:26:23.801Z,101467.55
2018-12-30T10:28:51.613Z,101460.84
2018-12-30T10:31:21.741Z,101469.75
2018-12-30T10:33:49.545Z,101467.50
2018-12-30T10:36:17.350Z,101475.99
2018-12-30T10:38:45.228Z,101473.34
2018-12-30T10:41:13.134Z,101470.25
2018-12-30T10:43:40.898Z,101464.70
2018-12-30T10:46:08.729Z,101468.11
2018-12-30T10:48:36.497Z,101465.53
2018-12-30T10:51:04.350Z,101470.23
2018-12-30T10:53:32.304Z,101472.95
2018-12-30T10:56:00.183Z,101472.45
2018-12-30T10:58:28.070Z,101474.70
2018-12-30T11:00:55.880Z,101465.22
2018-12-30T11:03:23.642Z,101462.83
2018-12-30T11:05:51.920Z,101464.12
2018-12-30T11:08:19.837Z,101464.84
2018-12-30T11:10:50.784Z,101463.53
2018-12-30T11:13:18.655Z,101459.82
2018-12-30T11:15:46.474Z,101465.21
2018-12-30T11:18:14.488Z,101466.38
2018-12-30T11:20:42.357Z,101474.94
2018-12-30T11:23:10.205Z,101480.91
2018-12-30T11:25:38.059Z,101481.52
2018-12-30T11:28:05.863Z,101477.47
2018-12-30T11:30:34.748Z,101476.00
2018-12-30T11:33:02.571Z,101470.56
2018-12-30T11:35:30.450Z,101462.59
2018-12-30T11:37:58.247Z,101465.46
2018-12-30T11:40:28.962Z,101458.91
2018-12-30T11:42:56.741Z,101459.67
2018-12-30T11:45:24.582Z,101457.64
2018-12-30T11:47:52.387Z,101461.64
2018-12-30T11:50:20.548Z,101455.94
2018-12-30T11:52:48.560Z,101457.00
2018-12-30T11:55:16.416Z,101451.49
2018-12-30T11:57:44.271Z,101450.34
2018-12-30T12:00:12.165Z,101471.06
2018-12-30T12:02:39.923Z,101464.91
2018-12-30T12:05:07.747Z,101458.80
2018-12-30T12:07:36.136Z,101462.47
2018-12-30T12:10:04.352Z,101471.91
2018-12-30T12:12:32.255Z,101463.50
2018-12-30T12:15:00.154Z,101478.69
2018-12-30T12:17:27.986Z,101482.84
2018-12-30T12:19:55.783Z,101483.27
2018-12-30T12:22:23.732Z,101478.52
2018-12-30T12:24:55.577Z,101482.06
2018-12-30T12:27:23.507Z,101478.52
2018-12-30T12:29:51.318Z,101473.64
2018-12-30T12:32:19.159Z,101486.96
2018-12-30T12:34:49.917Z,101497.09
2018-12-30T12:37:17.776Z,101487.30
2018-12-30T12:39:45.549Z,101484.90
2018-12-30T12:42:13.417Z,101496.76
2018-12-30T12:44:41.189Z,101504.34
2018-12-30T12:47:09.124Z,101494.38
2018-12-30T12:49:36.961Z,101494.81
2018-12-30T12:52:04.817Z,101491.76
2018-12-30T12:54:32.663Z,101488.78
2018-12-30T12:57:00.485Z,101493.65
2018-12-30T12:59:28.417Z,101496.42
2018-12-30T13:01:56.282Z,101494.20
2018-12-30T13:04:24.121Z,101510.93
2018-12-30T13:06:51.973Z,101502.27
2018-12-30T13:09:19.776Z,101502.02
2018-12-30T13:11:47.611Z,101504.58
2018-12-30T13:14:15.434Z,101506.36
2018-12-30T13:16:43.256Z,101520.03
2018-12-30T13:19:13.842Z,101505.59
2018-12-30T13:21:41.642Z,101514.77
2018-12-30T13:24:09.475Z,101506.45
2018-12-30T13:26:37.269Z,101503.53
2018-12-30T13:29:05.070Z,101516.84
2018-12-30T13:31:32.851Z,101512.03
2018-12-30T13:34:24.062Z,101521.92
2018-12-30T13:36:51.831Z,101516.53
2018-12-30T13:39:20.942Z,101517.64
2018-12-30T13:41:48.941Z,101521.37
2018-12-30T13:44:16.832Z,101521.24
2018-12-30T13:46:44.677Z,101528.56
2018-12-30T13:49:12.450Z,101530.49
2018-12-30T13:51:41.249Z,101533.56
2018-12-30T13:54:09.035Z,101540.15
2018-12-30T13:56:36.792Z,101533.13
2018-12-30T13:59:04.639Z,101539.61
2018-12-30T14:01:32.440Z,101538.64
2018-12-30T14:04:05.279Z,101545.78
2018-12-30T14:06:33.130Z,101545.95
2018-12-30T14:09:00.996Z,101556.22
2018-12-30T14:11:28.931Z,101553.72
2018-12-30T14:13:56.798Z,101545.52
2018-12-30T14:16:24.583Z,101548.66
2018-12-30T14:18:53.671Z,101556.59
2018-12-30T14:21:21.591Z,101558.06
2018-12-30T14:23:49.419Z,101563.90
2018-12-30T14:26:17.279Z,101562.55
2018-12-30T14:28:45.157Z,101566.17
2018-12-30T14:31:13.003Z,101553.46
2018-12-30T14:33:40.855Z,101565.86
2018-12-30T14:36:08.606Z,101571.28
2018-12-30T14:38:36.400Z,101577.69
2018-12-30T14:41:04.203Z,101584.72
2018-12-30T14:43:33.327Z,101580.02
2018-12-30T14:46:01.111Z,101576.84
2018-12-30T14:48:28.886Z,101576.34
2018-12-30T14:50:56.649Z,101574.34
2018-12-30T14:53:24.426Z,101570.97
2018-12-30T14:55:52.249Z,101573.80
2018-12-30T14:58:22.893Z,101573.98
2018-12-30T15:00:50.691Z,101577.02
2018-12-30T15:03:18.454Z,101579.03
2018-12-30T15:05:46.330Z,101566.45
2018-12-30T15:08:14.260Z,101575.32
2018-12-30T15:10:42.038Z,101575.57
2018-12-30T15:13:09.850Z,101574.41
2018-12-30T15:15:37.750Z,101564.16
2018-12-30T15:18:05.552Z,101568.33
2018-12-30T15:20:33.385Z,101554.89
2018-12-30T15:23:01.152Z,101557.05
2018-12-30T15:25:29.004Z,101560.94
2018-12-30T15:27:56.891Z,101559.95
2018-12-30T15:30:24.706Z,101564.33
2018-12-30T15:32:52.712Z,101567.16
2018-12-30T15:35:20.475Z,101563.41
2018-12-30T15:37:48.250Z,101568.96
2018-12-30T15:40:16.043Z,101575.00
2018-12-30T15:42:43.806Z,101571.29
2018-12-30T15:45:11.597Z,101570.97
2018-12-30T15:47:39.358Z,101562.87
2018-12-30T15:50:08.098Z,101555.84
2018-12-30T15:52:36.218Z,101560.54
2018-12-30T15:55:04.206Z,101566.77
2018-12-30T15:57:32.294Z,101574.83
2018-12-30T16:00:00.072Z,101565.73
2018-12-30T16:02:27.868Z,101573.80
2018-12-30T16:04:55.614Z,101579.39
2018-12-30T16:07:23.678Z,101573.48
2018-12-30T16:09:51.587Z,101575.67
2018-12-30T16:12:19.747Z,101574.69
2018-12-30T16:14:47.522Z,101589.11
2018-12-30T16:17:15.332Z,101591.59
2018-12-30T16:19:46.355Z,101607.89
2018-12-30T16:22:14.146Z,101608.95
2018-12-30T16:24:43.636Z,101618.34
2018-12-30T16:27:11.381Z,101621.06
2018-12-30T16:29:39.343Z,101624.09
2018-12-30T16:32:07.369Z,101638.18
2018-12-30T16:34:35.149Z,101641.03
2018-12-30T16:37:02.977Z,101649.42
2018-12-30T16:39:31.135Z,101656.61
2018-12-30T16:41:58.977Z,101657.63
2018-12-30T16:44:26.792Z,101660.87
2018-12-30T16:46:54.876Z,101653.95
2018-12-30T16:49:22.983Z,101652.61
2018-12-30T16:51:50.757Z,101653.45
2018-12-30T16:54:18.559Z,101653.66
2018-12-30T16:56:46.336Z,101645.77
2018-12-30T16:59:14.223Z,101653.48
2018-12-30T17:01:42.069Z,101655.31
2018-12-30T17:04:09.946Z,101647.58
2018-12-30T17:06:37.757Z,101641.23
2018-12-30T17:09:07.382Z,101647.95
2018-12-30T17:11:35.435Z,101645.77
2018-12-30T17:14:03.388Z,101658.17
2018-12-30T17:16:31.325Z,101647.95
2018-12-30T17:18:59.301Z,101669.62
2018-12-30T17:21:27.105Z,101664.25
2018-12-30T17:23:55.039Z,101661.05
2018-12-30T17:26:23.393Z,101665.58
2018-12-30T17:28:51.238Z,101662.22
2018-12-30T17:31:19.036Z,101667.10
2018-12-30T17:33:46.832Z,101666.25
2018-12-30T17:36:14.682Z,101672.11
2018-12-30T17:38:42.571Z,101674.97
2018-12-30T17:41:10.382Z,101682.34
2018-12-30T17:43:38.238Z,101700.31
2018-12-30T17:46:06.057Z,101682.53
2018-12-30T17:48:33.916Z,101674.97
2018-12-30T17:51:01.797Z,101684.20
2018-12-30T17:53:29.709Z,101686.23
2018-12-30T17:55:57.530Z,101695.27
2018-12-30T17:58:25.319Z,101697.80
2018-12-30T18:00:53.130Z,101696.97
2018-12-30T18:03:21.039Z,101696.47
2018-12-30T18:05:48.852Z,101692.61
2018-12-30T18:08:17.652Z,101688.23
2018-12-30T18:10:45.538Z,101698.98
2018-12-30T18:13:13.373Z,101704.03
2018-12-30T18:15:41.165Z,101714.09
2018-12-30T18:18:08.971Z,101721.31
2018-12-30T18:20:36.765Z,101724.98
2018-12-30T18:23:04.597Z,101726.67
2018-12-30T18:25:32.590Z,101736.42
2018-12-30T18:28:00.781Z,101730.88
2018-12-30T18:30:28.652Z,101721.46
2018-12-30T18:32:56.435Z,101715.25
2018-12-30T18:35:24.979Z,101722.64
2018-12-30T18:37:52.745Z,101718.63
2018-12-30T18:40:20.590Z,101727.86
2018-12-30T18:42:48.434Z,101729.53
2018-12-30T18:45:16.254Z,101729.86
2018-12-30T18:47:44.081Z,101730.70
2018-12-30T18:50:11.939Z,101727.86
2018-12-30T18:52:39.741Z,101734.57
2018-12-30T18:55:07.552Z,101720.98
2018-12-30T18:57:38.662Z,101731.87
2018-12-30T19:00:10.685Z,101735.56
2018-12-30T19:02:38.531Z,101731.71
2018-12-30T19:05:07.442Z,101731.55
2018-12-30T19:07:35.320Z,101719.95
2018-12-30T19:10:03.306Z,101732.38
2018-12-30T19:12:31.090Z,101741.11
2018-12-30T19:14:58.944Z,101733.06
2018-12-30T19:17:26.729Z,101747.99
2018-12-30T19:19:54.515Z,101745.63
2018-12-30T19:22:22.284Z,101745.14
2018-12-30T19:24:50.076Z,101742.77
2018-12-30T19:27:17.806Z,101746.92
2018-12-30T19:29:45.610Z,101747.64
2018-12-30T19:32:13.414Z,101756.13
2018-12-30T19:34:41.186Z,101747.80
2018-12-30T19:37:08.970Z,101757.34
2018-12-30T19:39:36.735Z,101743.91
2018-12-30T19:42:04.501Z,101750.12
2018-12-30T19:44:32.294Z,101752.60
2018-12-30T19:47:00.072Z,101742.16
2018-12-30T19:49:27.877Z,101738.67
2018-12-30T19:51:55.668Z,101746.92
2018-12-30T19:54:23.452Z,101740.88
2018-12-30T19:56:51.287Z,101745.22
2018-12-30T19:59:19.083Z,101744.59
2018-12-30T20:01:46.909Z,101755.17
2018-12-30T20:04:14.809Z,101756.19
2018-12-30T20:06:42.631Z,101747.32
2018-12-30T20:09:10.408Z,101752.01
2018-12-30T20:11:38.195Z,101754.35
2018-12-30T20:14:06.145Z,101752.95
2018-12-30T20:16:33.901Z,101749.25
2018-12-30T20:19:01.685Z,101752.66
2018-12-30T20:21:30.301Z,101753.62
2018-12-30T20:23:58.907Z,101757.66
2018-12-30T20:26:29.983Z,101750.33
2018-12-30T20:28:56.409Z,101750.84
2018-12-30T20:31:24.281Z,101753.84
2018-12-30T20:33:52.087Z,101754.67
2018-12-30T20:36:19.878Z,101763.73
2018-12-30T20:38:47.642Z,101762.56
2018-12-30T20:41:15.513Z,101761.55
2018-12-30T20:43:43.352Z,101763.20
2018-12-30T20:46:11.282Z,101766.34
2018-12-30T20:48:39.051Z,101764.51
2018-12-30T20:51:06.857Z,101764.32
2018-12-30T20:53:34.672Z,101753.45
2018-12-30T20:56:02.555Z,101752.44
2018-12-30T20:58:30.371Z,101749.73
2018-12-30T21:00:58.167Z,101746.67
2018-12-30T21:04:14.594Z,101748.52
2018-12-30T21:06:42.424Z,101748.85
2018-12-30T21:09:10.206Z,101762.98
2018-12-30T21:12:05.044Z,101763.95
2018-12-30T21:14:32.818Z,101762.13
2018-12-30T21:17:00.656Z,101768.00
2018-12-30T21:19:28.398Z,101764.45
2018-12-30T21:21:56.214Z,101754.80
2018-12-30T21:24:23.976Z,101748.20
2018-12-30T21:26:51.787Z,101752.73
2018-12-30T21:29:19.542Z,101745.19
2018-12-30T21:31:47.384Z,101746.48
2018-12-30T21:34:15.154Z,101744.14
2018-12-30T21:36:42.972Z,101733.10
2018-12-30T21:39:10.794Z,101747.03
2018-12-30T21:41:38.555Z,101740.84
2018-12-30T21:44:07.132Z,101735.66
2018-12-30T21:46:34.905Z,101736.75
2018-12-30T21:49:02.735Z,101737.09
2018-12-30T21:51:30.626Z,101737.06
2018-12-30T21:53:58.441Z,101741.80
2018-12-30T21:56:26.200Z,101747.65
2018-12-30T21:58:54.020Z,101754.86
2018-12-30T22:01:21.794Z,101756.39
2018-12-30T22:03:49.575Z,101752.84
2018-12-30T22:06:17.380Z,101763.77
2018-12-30T22:08:45.198Z,101771.39
2018-12-30T22:11:12.956Z,101779.75
2018-12-30T22:13:40.743Z,101784.42
2018-12-30T22:16:08.510Z,101785.80
2018-12-30T22:18:36.349Z,101786.86
2018-12-30T22:21:04.137Z,101790.78
2018-12-30T22:23:32.246Z,101789.17
2018-12-30T22:26:00.032Z,101797.19
2018-12-30T22:28:27.845Z,101799.52
2018-12-30T22:30:55.602Z,101795.69
2018-12-30T22:33:23.371Z,101809.30
2018-12-30T22:35:51.141Z,101804.81
2018-12-30T22:38:18.945Z,101805.71
2018-12-30T22:40:47.553Z,101792.97
2018-12-30T22:43:15.387Z,101787.43
2018-12-30T22:45:43.219Z,101792.27
2018-12-30T22:48:11.043Z,101793.48
2018-12-30T22:50:38.914Z,101785.73
2018-12-30T22:53:06.722Z,101793.56
2018-12-30T22:55:34.489Z,101792.35
2018-12-30T22:58:02.329Z,101789.15
2018-12-30T23:00:49.830Z,101795.23
2018-12-30T23:03:17.620Z,101799.58
2018-12-30T23:05:47.210Z,101786.74
2018-12-30T23:08:15.084Z,101794.25
2018-12-30T23:10:43.598Z,101796.30
2018-12-30T23:13:11.679Z,101785.70
2018-12-30T23:15:39.455Z,101787.54
2018-12-30T23:18:07.250Z,101796.51
2018-12-30T23:20:35.068Z,101807.46
2018-12-30T23:23:03.068Z,101810.86
2018-12-30T23:25:30.889Z,101806.39
2018-12-30T23:27:58.661Z,101810.55
2018-12-30T23:30:28.076Z,101809.48
2018-12-30T23:32:55.871Z,101806.05
2018-12-30T23:35:23.678Z,101809.37
2018-12-30T23:37:51.463Z,101795.64
2018-12-30T23:40:19.282Z,101803.82
2018-12-30T23:42:47.109Z,101807.00
2018-12-30T23:45:14.974Z,101802.75
2018-12-30T23:47:42.724Z,101806.28
2018-12-30T23:50:10.490Z,101806.77
2018-12-30T23:52:38.280Z,101804.48
2018-12-30T23:55:06.075Z,101803.33
2018-12-30T23:57:33.874Z,101804.75
